Time;durP1;ratioP1;P1;durP2;ratioP2;P2;SDS_P1;SDS_P2;PMS_P1;PMS_P2;Temp;Humidity;BMP_temperature;BMP_pressure;BME280_temperature;BME280_humidity;BME280_pressure;Samples;Min_cycle;Max_cycle;Signal;HPM_P1;HPM_P2
2022/03/25 00:00:12;;;;;;;5.47;5.13;;;24.30;43.60;;;;;;4978192;28;20445;-81
2022/03/25 00:02:40;;;;;;;5.40;5.00;;;24.30;43.60;;;;;;4978212;28;20449;-81
2022/03/25 00:05:08;;;;;;;5.53;5.03;;;24.30;43.60;;;;;;4977720;28;20454;-81
2022/03/25 00:07:35;;;;;;;5.70;5.27;;;24.30;43.60;;;;;;4978099;28;20499;-81
2022/03/25 00:13:24;;;;;;;5.07;4.67;;;24.30;43.60;;;;;;4978079;28;20750;-81
2022/03/25 00:15:52;;;;;;;5.67;5.17;;;24.20;43.50;;;;;;4977865;28;20449;-86
2022/03/25 00:18:19;;;;;;;5.07;4.70;;;24.20;43.50;;;;;;4977879;28;20570;-83
2022/03/25 00:20:46;;;;;;;4.87;4.57;;;24.30;43.60;;;;;;4977795;28;20452;-82
2022/03/25 00:23:12;;;;;;;5.33;4.93;;;24.30;43.60;;;;;;4977685;28;20468;-81
2022/03/25 00:25:39;;;;;;;5.30;4.90;;;24.30;43.50;;;;;;4977702;28;20456;-81
2022/03/25 00:28:06;;;;;;;6.23;5.73;;;24.30;43.50;;;;;;4977296;28;20449;-81
2022/03/25 00:30:33;;;;;;;6.10;5.70;;;24.30;43.50;;;;;;4977620;28;20452;-81
2022/03/25 00:33:01;;;;;;;6.90;5.40;;;24.30;43.50;;;;;;4977172;28;20484;-81
2022/03/25 00:35:28;;;;;;;5.37;4.97;;;24.20;43.40;;;;;;4977298;28;20444;-81
2022/03/25 00:37:55;;;;;;;5.20;4.80;;;24.30;43.50;;;;;;4977417;28;20497;-81
2022/03/25 00:40:21;;;;;;;6.07;5.67;;;24.20;43.40;;;;;;4977397;28;20496;-81
2022/03/25 00:42:48;;;;;;;5.60;5.20;;;24.30;43.50;;;;;;4977103;28;20441;-81
2022/03/25 00:45:15;;;;;;;6.53;6.03;;;24.30;43.40;;;;;;4977601;28;20441;-81
2022/03/25 00:47:42;;;;;;;5.73;5.33;;;24.30;43.40;;;;;;4978199;28;20606;-81
2022/03/25 00:53:32;;;;;;;4.90;4.50;;;24.30;43.40;;;;;;4977042;28;20394;-81
2022/03/25 00:56:01;;;;;;;5.13;4.73;;;24.20;43.50;;;;;;4977167;28;20444;-81
2022/03/25 00:58:28;;;;;;;6.17;5.73;;;24.20;43.40;;;;;;4977000;28;20489;-81
2022/03/25 01:00:55;;;;;;;5.93;5.53;;;24.30;43.50;;;;;;4977067;28;20445;-81
2022/03/25 01:03:22;;;;;;;5.67;5.27;;;24.20;43.40;;;;;;4977037;28;20450;-82
2022/03/25 01:05:49;;;;;;;5.50;5.10;;;24.30;43.40;;;;;;4976926;28;20453;-86
2022/03/25 01:08:16;;;;;;;5.90;5.40;;;24.30;43.40;;;;;;4976796;28;20441;-81
2022/03/25 01:10:44;;;;;;;4.93;4.63;;;24.30;43.40;;;;;;4976241;28;20457;-81
2022/03/25 01:13:11;;;;;;;5.80;5.40;;;24.20;43.40;;;;;;4976891;28;20484;-81
2022/03/25 01:15:38;;;;;;;5.87;5.37;;;24.20;43.30;;;;;;4976553;28;20979;-81
2022/03/25 01:18:05;;;;;;;6.30;5.80;;;24.20;43.30;;;;;;4976678;28;20487;-81
2022/03/25 01:20:32;;;;;;;5.30;5.00;;;24.20;43.30;;;;;;4976706;28;20460;-81
2022/03/25 01:22:59;;;;;;;5.80;5.30;;;24.20;43.30;;;;;;4976688;28;20913;-81
2022/03/25 01:25:26;;;;;;;5.80;5.40;;;24.20;43.30;;;;;;4976363;28;20933;-81
2022/03/25 01:27:54;;;;;;;5.57;5.20;;;24.20;43.30;;;;;;4976565;28;20461;-82
2022/03/25 01:30:21;;;;;;;5.13;4.73;;;24.30;43.30;;;;;;4976526;28;20632;-87
2022/03/25 01:32:48;;;;;;;5.57;5.07;;;24.20;43.30;;;;;;4976351;28;20797;-87
2022/03/25 01:35:14;;;;;;;6.40;5.90;;;24.20;43.30;;;;;;4977214;28;20437;-81
2022/03/25 01:41:03;;;;;;;5.33;4.93;;;24.20;43.30;;;;;;4976136;28;20393;-81
2022/03/25 01:43:31;;;;;;;5.57;4.93;;;24.20;43.40;;;;;;4976223;28;20433;-81
2022/03/25 01:45:58;;;;;;;5.60;5.20;;;24.20;43.30;;;;;;4976273;28;20464;-81
2022/03/25 01:48:25;;;;;;;5.20;4.80;;;24.20;43.30;;;;;;4976156;28;20464;-82
2022/03/25 01:50:52;;;;;;;5.30;4.90;;;24.20;43.30;;;;;;4976179;28;20437;-87
2022/03/25 01:53:20;;;;;;;5.87;5.43;;;24.20;43.30;;;;;;4976106;28;20442;-81
2022/03/25 01:55:51;;;;;;;5.50;5.10;;;24.20;43.20;;;;;;4976027;28;20460;-81
2022/03/25 01:58:19;;;;;;;5.50;5.10;;;24.20;43.20;;;;;;4975973;28;20483;-80
2022/03/25 02:00:47;;;;;;;6.17;5.67;;;24.20;43.20;;;;;;4975657;28;20453;-85
2022/03/25 02:03:16;;;;;;;5.20;4.80;;;24.20;43.20;;;;;;4975702;28;20962;-81
2022/03/25 02:05:43;;;;;;;5.10;4.80;;;24.20;43.20;;;;;;4975621;28;20441;-80
2022/03/25 02:08:10;;;;;;;6.00;5.60;;;24.20;43.20;;;;;;4975904;28;20456;-80
2022/03/25 02:10:37;;;;;;;5.47;5.07;;;24.20;43.30;;;;;;4975806;28;20441;-80
2022/03/25 02:13:04;;;;;;;5.90;5.40;;;24.20;43.20;;;;;;4975688;28;20440;-80
2022/03/25 02:15:35;;;;;;;5.50;5.10;;;24.20;43.20;;;;;;4975692;28;20453;-81
2022/03/25 02:18:06;;;;;;;6.20;5.70;;;24.20;43.20;;;;;;4975550;28;20477;-81
2022/03/25 02:20:33;;;;;;;5.23;4.83;;;24.20;43.20;;;;;;4975619;28;20434;-80
2022/03/25 02:23:01;;;;;;;6.20;5.70;;;24.20;43.20;;;;;;4975524;28;20441;-81
2022/03/25 02:25:29;;;;;;;5.77;5.27;;;24.20;43.20;;;;;;4975259;28;20445;-87
2022/03/25 02:27:58;;;;;;;5.23;4.83;;;24.20;43.20;;;;;;4975670;28;20505;-81
2022/03/25 02:30:25;;;;;;;5.50;5.00;;;24.20;43.20;;;;;;4975475;28;20540;-81
2022/03/25 02:32:52;;;;;;;6.00;5.53;;;24.20;43.20;;;;;;4975443;28;20540;-81
2022/03/25 02:35:19;;;;;;;5.30;4.90;;;24.20;43.20;;;;;;4975388;28;20446;-85
2022/03/25 02:37:46;;;;;;;5.50;5.00;;;24.20;43.20;;;;;;4974962;28;20449;-80
2022/03/25 02:40:14;;;;;;;5.53;5.13;;;24.20;43.20;;;;;;4974962;28;20444;-81
2022/03/25 02:42:40;;;;;;;5.77;5.30;;;24.20;43.20;;;;;;4974970;28;20965;-81
2022/03/25 02:45:09;;;;;;;5.93;5.43;;;24.20;43.10;;;;;;4975197;28;20452;-81
2022/03/25 02:47:35;;;;;;;6.40;5.90;;;24.20;43.20;;;;;;4975373;28;20828;-80
2022/03/25 02:50:02;;;;;;;5.10;4.70;;;24.20;43.20;;;;;;4975415;28;20491;-87
2022/03/25 02:52:29;;;;;;;5.80;5.40;;;24.20;43.20;;;;;;4975130;28;20452;-81
2022/03/25 02:54:56;;;;;;;6.40;5.93;;;24.20;43.20;;;;;;4975103;28;20448;-81
2022/03/25 02:57:24;;;;;;;5.53;5.13;;;24.10;43.10;;;;;;4975070;28;20477;-86
2022/03/25 02:59:51;;;;;;;4.73;4.43;;;24.20;43.10;;;;;;4974935;28;20489;-80
2022/03/25 03:02:17;;;;;;;5.73;5.23;;;24.10;43.10;;;;;;4975063;28;20445;-80
2022/03/25 03:04:45;;;;;;;5.67;5.20;;;24.10;43.10;;;;;;4974634;28;20529;-82
2022/03/25 03:07:12;;;;;;;5.30;4.90;;;24.20;43.20;;;;;;4974714;28;20940;-80
2022/03/25 03:09:38;;;;;;;5.57;5.10;;;24.10;43.10;;;;;;4975004;28;20452;-80
2022/03/25 03:12:06;;;;;;;5.53;5.13;;;24.10;43.10;;;;;;4975164;28;20452;-80
2022/03/25 03:14:34;;;;;;;5.30;4.90;;;24.10;43.10;;;;;;4974919;28;20467;-81
2022/03/25 03:17:00;;;;;;;5.67;5.17;;;24.10;43.10;;;;;;4974840;28;20929;-80
2022/03/25 03:19:27;;;;;;;5.70;5.30;;;24.10;43.10;;;;;;4974858;28;20480;-80
2022/03/25 03:21:54;;;;;;;4.97;4.63;;;24.20;43.20;;;;;;4974819;28;20863;-80
2022/03/25 03:24:21;;;;;;;5.83;5.33;;;24.10;43.10;;;;;;4974767;28;20452;-79
2022/03/25 03:26:48;;;;;;;5.57;5.20;;;24.10;43.10;;;;;;4974756;28;20445;-81
2022/03/25 03:29:14;;;;;;;5.57;5.17;;;24.10;43.10;;;;;;4974465;28;20433;-80
2022/03/25 03:31:42;;;;;;;5.20;4.80;;;24.10;43.10;;;;;;4974669;28;20449;-80
2022/03/25 03:34:09;;;;;;;5.67;5.20;;;24.10;43.00;;;;;;4978285;28;20484;-86
2022/03/25 03:36:36;;;;;;;5.87;5.37;;;24.10;43.10;;;;;;4978603;28;20449;-80
2022/03/25 03:39:03;;;;;;;5.87;5.47;;;24.10;43.00;;;;;;4978538;28;20493;-80
2022/03/25 03:41:29;;;;;;;5.47;5.07;;;24.10;43.10;;;;;;4978558;28;20441;-80
2022/03/25 03:43:56;;;;;;;6.27;5.80;;;24.10;43.00;;;;;;4978588;28;20801;-80
2022/03/25 03:46:23;;;;;;;5.77;5.37;;;24.00;43.00;;;;;;4978414;28;20809;-81
2022/03/25 03:48:52;;;;;;;5.70;5.30;;;24.10;43.00;;;;;;4978107;28;20469;-82
2022/03/25 03:51:18;;;;;;;6.30;5.80;;;24.10;43.10;;;;;;4978273;28;20456;-82
2022/03/25 03:53:45;;;;;;;5.67;5.27;;;24.10;43.00;;;;;;4978325;28;20458;-81
2022/03/25 03:56:12;;;;;;;5.97;5.57;;;24.00;43.00;;;;;;4978195;28;20447;-87
2022/03/25 03:58:39;;;;;;;5.03;4.70;;;24.10;43.00;;;;;;4978105;28;20503;-81
2022/03/25 04:01:06;;;;;;;6.43;5.93;;;24.00;43.00;;;;;;4978254;28;20784;-80
2022/03/25 04:03:33;;;;;;;5.53;5.13;;;24.00;43.00;;;;;;4978117;28;20459;-80
2022/03/25 04:06:01;;;;;;;5.97;5.53;;;24.00;43.00;;;;;;4977797;28;20449;-87
2022/03/25 04:08:28;;;;;;;5.60;5.20;;;24.10;43.00;;;;;;4977771;28;20956;-81
2022/03/25 04:10:55;;;;;;;5.90;5.50;;;24.10;43.00;;;;;;4978043;28;20445;-81
2022/03/25 04:13:22;;;;;;;5.70;5.30;;;24.00;43.00;;;;;;4978010;28;20446;-87
2022/03/25 04:15:49;;;;;;;6.10;5.63;;;24.00;43.00;;;;;;4977930;28;20447;-82
2022/03/25 04:18:17;;;;;;;6.40;5.50;;;24.00;43.00;;;;;;4978022;28;20453;-81
2022/03/25 04:20:44;;;;;;;6.40;5.90;;;24.00;43.00;;;;;;4978345;28;20516;-81
2022/03/25 04:23:12;;;;;;;5.77;5.37;;;24.00;43.00;;;;;;4978210;28;20445;-81
2022/03/25 04:25:39;;;;;;;5.90;5.50;;;24.00;43.00;;;;;;4978654;28;20484;-81
2022/03/25 04:28:06;;;;;;;5.73;5.33;;;24.00;43.00;;;;;;4977927;28;20445;-87
2022/03/25 04:30:35;;;;;;;5.27;4.87;;;24.00;43.00;;;;;;4977721;28;20441;-87
2022/03/25 04:33:02;;;;;;;5.80;5.40;;;24.00;43.00;;;;;;4977313;28;20473;-80
2022/03/25 04:35:29;;;;;;;4.93;4.63;;;24.00;43.00;;;;;;4977645;28;20437;-80
2022/03/25 04:37:57;;;;;;;5.50;5.10;;;24.00;43.00;;;;;;4977537;28;20796;-81
2022/03/25 04:40:28;;;;;;;5.00;4.60;;;24.00;43.00;;;;;;4977486;28;20489;-87
2022/03/25 04:42:56;;;;;;;5.60;5.20;;;24.00;43.30;;;;;;4977530;28;20440;-81
2022/03/25 04:45:24;;;;;;;4.70;4.40;;;24.00;43.00;;;;;;4976328;28;20445;-82
2022/03/25 04:47:51;;;;;;;5.57;5.17;;;24.00;43.00;;;;;;4977368;28;20477;-82
2022/03/25 04:50:19;;;;;;;4.90;4.60;;;24.00;43.00;;;;;;4977250;28;20808;-81
2022/03/25 04:52:46;;;;;;;5.23;4.83;;;24.00;43.00;;;;;;4977534;28;20449;-87
2022/03/25 04:55:13;;;;;;;6.47;5.97;;;24.00;43.00;;;;;;4977275;28;20453;-86
2022/03/25 04:57:42;;;;;;;5.33;4.93;;;24.00;42.90;;;;;;4976922;28;20968;-81
2022/03/25 05:00:10;;;;;;;5.97;5.57;;;24.00;42.90;;;;;;4977084;28;20489;-87
2022/03/25 05:02:37;;;;;;;5.50;5.00;;;24.00;43.00;;;;;;4976987;28;20813;-80
2022/03/25 05:05:04;;;;;;;5.83;5.37;;;24.00;42.90;;;;;;4977029;28;20456;-79
2022/03/25 05:07:31;;;;;;;5.77;5.30;;;24.00;42.90;;;;;;4977023;28;20801;-80
2022/03/25 05:09:59;;;;;;;5.40;5.00;;;24.00;42.90;;;;;;4959629;28;20500;-87
2022/03/25 05:12:26;;;;;;;5.27;4.90;;;24.00;42.90;;;;;;4976953;28;20528;-83
2022/03/25 05:14:54;;;;;;;6.70;6.10;;;24.00;42.90;;;;;;4976911;28;20441;-80
2022/03/25 05:17:21;;;;;;;5.63;5.23;;;24.00;42.90;;;;;;4976788;28;20450;-82
2022/03/25 05:19:49;;;;;;;5.10;4.70;;;24.00;42.90;;;;;;4976592;28;20488;-81
2022/03/25 05:22:15;;;;;;;5.23;4.83;;;24.00;42.90;;;;;;4976634;28;20476;-81
2022/03/25 05:24:42;;;;;;;5.80;5.40;;;24.00;42.90;;;;;;4976395;28;20948;-81
2022/03/25 05:27:09;;;;;;;4.90;4.57;;;24.00;42.90;;;;;;4976375;28;20460;-82
2022/03/25 05:29:36;;;;;;;5.60;5.20;;;24.00;42.90;;;;;;4976551;28;20448;-82
2022/03/25 05:32:04;;;;;;;5.57;5.20;;;23.90;42.90;;;;;;4976511;28;20449;-86
2022/03/25 05:34:31;;;;;;;5.60;5.20;;;24.00;42.90;;;;;;4976121;28;20483;-80
2022/03/25 05:36:58;;;;;;;5.93;5.53;;;24.00;42.90;;;;;;4976415;28;20452;-80
2022/03/25 05:39:25;;;;;;;4.80;4.47;;;23.90;42.90;;;;;;4976286;28;20492;-84
2022/03/25 05:41:52;;;;;;;5.17;4.87;;;23.90;42.90;;;;;;4976416;28;20449;-81
2022/03/25 05:44:18;;;;;;;5.23;4.83;;;24.10;43.00;;;;;;4976279;28;20449;-83
2022/03/25 05:46:45;;;;;;;4.97;4.57;;;24.00;42.90;;;;;;4976230;28;20465;-81
2022/03/25 05:49:13;;;;;;;4.80;4.50;;;23.90;42.90;;;;;;4976183;28;20457;-83
2022/03/25 05:51:40;;;;;;;5.27;4.87;;;23.90;42.90;;;;;;4975942;28;20955;-81
2022/03/25 05:54:07;;;;;;;6.30;5.80;;;23.90;42.90;;;;;;4976087;28;20944;-81
2022/03/25 05:56:34;;;;;;;5.60;5.20;;;23.90;42.80;;;;;;4975723;28;20456;-81
2022/03/25 05:59:00;;;;;;;5.17;4.77;;;24.00;43.00;;;;;;4975984;28;20488;-81
2022/03/25 06:01:29;;;;;;;5.73;5.30;;;23.90;42.90;;;;;;4975950;28;20452;-81
2022/03/25 06:03:55;;;;;;;4.70;4.30;;;23.90;42.90;;;;;;4975962;28;20449;-81
2022/03/25 06:06:24;;;;;;;5.77;5.27;;;23.90;42.90;;;;;;4975976;28;20447;-81
2022/03/25 06:08:51;;;;;;;4.60;4.30;;;23.90;42.90;;;;;;4975834;28;20853;-81
2022/03/25 06:11:18;;;;;;;5.27;4.87;;;23.90;42.90;;;;;;4975876;28;20442;-81
2022/03/25 06:13:45;;;;;;;6.07;5.50;;;23.90;42.90;;;;;;4975813;28;20512;-84
2022/03/25 06:16:11;;;;;;;4.53;4.23;;;23.90;42.90;;;;;;4975730;28;20819;-82
2022/03/25 06:18:38;;;;;;;7.57;6.30;;;23.90;42.90;;;;;;4975417;28;20943;-81
2022/03/25 06:21:05;;;;;;;5.40;5.00;;;23.80;43.40;;;;;;4975799;28;20516;-81
2022/03/25 06:23:33;;;;;;;6.73;6.13;;;23.70;43.40;;;;;;4975286;28;20452;-81
2022/03/25 06:26:00;;;;;;;6.07;5.57;;;23.70;43.40;;;;;;4975386;28;20450;-78
2022/03/25 06:28:27;;;;;;;5.47;5.07;;;23.70;43.50;;;;;;4975609;28;20456;-79
2022/03/25 06:30:53;;;;;;;5.77;5.37;;;23.70;43.50;;;;;;4975282;28;20457;-80
2022/03/25 06:33:20;;;;;;;8.03;6.10;;;23.70;43.60;;;;;;4975052;28;20473;-79
2022/03/25 06:35:47;;;;;;;10.40;5.97;;;23.70;43.60;;;;;;4974844;28;20448;-80
2022/03/25 06:38:14;;;;;;;6.20;5.80;;;23.70;43.60;;;;;;4974975;28;20441;-79
2022/03/25 06:40:42;;;;;;;7.63;5.57;;;23.70;43.60;;;;;;4974631;28;20484;-80
2022/03/25 06:43:09;;;;;;;6.40;5.90;;;23.70;43.70;;;;;;4975020;28;20472;-78
2022/03/25 06:45:36;;;;;;;6.13;5.73;;;23.60;43.70;;;;;;4975086;28;20452;-80
2022/03/25 06:48:03;;;;;;;6.30;5.80;;;23.60;43.70;;;;;;4975147;28;20450;-79
2022/03/25 06:50:31;;;;;;;6.23;5.73;;;23.60;43.70;;;;;;4974835;28;20936;-81
2022/03/25 06:53:00;;;;;;;7.00;6.43;;;23.60;43.70;;;;;;4975274;28;20445;-80
2022/03/25 06:55:28;;;;;;;5.13;4.50;;;23.70;43.80;;;;;;4976449;28;20449;-83
2022/03/25 06:57:56;;;;;;;5.60;5.10;;;23.70;43.90;;;;;;4975741;28;20949;-85
2022/03/25 07:00:24;;;;;;;6.37;5.77;;;23.70;44.00;;;;;;4975201;28;20493;-84
2022/03/25 07:02:52;;;;;;;6.77;6.07;;;23.70;44.10;;;;;;4975453;28;20457;-84
2022/03/25 07:05:19;;;;;;;5.70;5.30;;;23.60;44.00;;;;;;4975353;28;20498;-85
2022/03/25 07:07:46;;;;;;;5.97;5.47;;;23.60;44.10;;;;;;4974557;28;20449;-85
2022/03/25 07:10:15;;;;;;;7.90;7.20;;;23.60;44.20;;;;;;4975273;28;20449;-84
2022/03/25 07:12:44;;;;;;;5.93;5.50;;;23.70;44.30;;;;;;4975292;28;20867;-84
2022/03/25 07:15:12;;;;;;;6.90;6.30;;;23.70;44.30;;;;;;4975101;28;20452;-85
2022/03/25 07:17:41;;;;;;;6.47;5.97;;;23.70;44.10;;;;;;4974832;28;20503;-85
2022/03/25 07:20:09;;;;;;;7.10;6.50;;;23.70;44.10;;;;;;4975066;28;20887;-83
2022/03/25 07:22:37;;;;;;;7.63;5.90;;;23.80;43.90;;;;;;4975122;28;20449;-85
2022/03/25 07:25:05;;;;;;;5.70;5.20;;;23.80;44.60;;;;;;4975153;28;20851;-87
2022/03/25 07:27:31;;;;;;;5.00;4.60;;;23.80;44.00;;;;;;4975071;28;20879;-87
2022/03/25 07:29:59;;;;;;;5.90;5.30;;;23.80;43.90;;;;;;4974597;28;20457;-87
2022/03/25 07:32:27;;;;;;;5.70;5.30;;;23.90;43.90;;;;;;4975735;28;20819;-86
2022/03/25 07:34:54;;;;;;;4.63;4.30;;;24.00;44.00;;;;;;4974657;28;20476;-82
2022/03/25 07:37:21;;;;;;;4.90;4.57;;;24.00;43.90;;;;;;4975682;28;20433;-82
2022/03/25 07:39:48;;;;;;;5.73;5.27;;;24.00;43.90;;;;;;4975527;28;20484;-87
2022/03/25 07:42:14;;;;;;;5.23;4.83;;;24.00;43.80;;;;;;4974858;28;20449;-87
2022/03/25 07:44:41;;;;;;;5.83;5.33;;;24.00;43.70;;;;;;4974355;28;20453;-83
2022/03/25 07:47:10;;;;;;;5.60;5.10;;;24.00;43.70;;;;;;4975727;28;20475;-80
2022/03/25 07:49:39;;;;;;;6.00;5.50;;;24.00;43.70;;;;;;4975737;28;20449;-83
2022/03/25 07:52:07;;;;;;;6.70;6.10;;;24.10;44.00;;;;;;4974765;28;20992;-88
2022/03/25 07:54:34;;;;;;;6.40;4.40;;;24.00;43.80;;;;;;4974694;28;20456;-83
2022/03/25 07:57:01;;;;;;;4.97;4.57;;;24.20;43.90;;;;;;4974893;28;20449;-83
2022/03/25 07:59:29;;;;;;;4.90;4.50;;;24.10;43.70;;;;;;4974719;28;20449;-89
2022/03/25 08:01:56;;;;;;;5.07;4.77;;;24.10;43.70;;;;;;4974704;28;20445;-84
2022/03/25 08:04:24;;;;;;;5.80;5.30;;;24.10;43.70;;;;;;4974272;28;20825;-83
2022/03/25 08:06:52;;;;;;;5.83;5.10;;;24.10;43.70;;;;;;4974501;28;20441;-84
2022/03/25 08:09:18;;;;;;;4.70;4.40;;;24.20;43.80;;;;;;4974647;28;20449;-85
2022/03/25 08:11:46;;;;;;;5.10;4.60;;;24.20;43.80;;;;;;4974881;28;20446;-88
2022/03/25 08:14:13;;;;;;;7.20;6.60;;;24.20;43.80;;;;;;4974528;28;20445;-83
2022/03/25 08:16:42;;;;;;;10.10;8.60;;;24.20;43.70;;;;;;4975351;28;20536;-94
2022/03/25 08:19:09;;;;;;;8.77;7.90;;;24.20;43.60;;;;;;4977023;28;20532;-91
2022/03/25 08:21:35;;;;;;;12.17;8.97;;;24.20;43.50;;;;;;4978202;28;20505;-83
2022/03/25 08:29:32;;;;;;;10.47;9.53;;;24.20;43.20;;;;;;4978447;28;20410;-84
2022/03/25 08:31:59;;;;;;;14.13;9.87;;;24.20;43.50;;;;;;4978043;28;20476;-83
2022/03/25 08:34:25;;;;;;;25.87;11.40;;;24.10;43.60;;;;;;4977603;28;20479;-89
2022/03/25 08:36:52;;;;;;;17.13;9.33;;;24.20;43.70;;;;;;4977938;28;20524;-93
2022/03/25 08:39:22;;;;;;;10.60;9.50;;;24.20;44.20;;;;;;4977915;28;20815;-84
2022/03/25 08:41:49;;;;;;;11.43;9.20;;;24.20;43.40;;;;;;4978255;28;20484;-93
2022/03/25 08:44:17;;;;;;;11.60;10.07;;;24.10;43.40;;;;;;4977343;28;20446;-83
2022/03/25 08:46:43;;;;;;;23.00;8.60;;;24.20;43.40;;;;;;4977190;28;20457;-83
2022/03/25 08:49:11;;;;;;;15.30;7.53;;;24.20;43.40;;;;;;4977648;28;20445;-81
2022/03/25 08:51:38;;;;;;;16.03;7.27;;;24.30;43.70;;;;;;4977469;28;20488;-83
2022/03/25 08:54:05;;;;;;;16.93;6.73;;;24.30;43.90;;;;;;4977336;28;20807;-84
2022/03/25 08:56:34;;;;;;;17.40;7.70;;;24.30;44.00;;;;;;4977085;28;20980;-90
2022/03/25 08:59:01;;;;;;;19.80;8.57;;;24.40;44.70;;;;;;4977046;28;20540;-88
2022/03/25 09:01:28;;;;;;;10.17;6.50;;;24.40;44.20;;;;;;4977248;28;20487;-90
2022/03/25 09:03:55;;;;;;;15.73;7.73;;;24.40;44.30;;;;;;4977212;28;20944;-80
2022/03/25 09:06:22;;;;;;;15.53;7.77;;;24.50;44.40;;;;;;4977464;28;20449;-82
2022/03/25 09:08:50;;;;;;;13.63;7.00;;;24.50;44.40;;;;;;4977261;28;20449;-83
2022/03/25 09:11:17;;;;;;;15.00;7.80;;;24.50;44.50;;;;;;4977229;28;20449;-83
2022/03/25 09:13:45;;;;;;;24.27;7.50;;;24.60;44.60;;;;;;4978132;28;20452;-82
2022/03/25 09:16:13;;;;;;;15.43;7.90;;;24.60;44.60;;;;;;4985497;28;20452;-82
2022/03/25 09:18:40;;;;;;;14.17;7.10;;;24.60;44.60;;;;;;4983559;28;20528;-83
2022/03/25 09:21:07;;;;;;;21.83;7.97;;;24.70;44.70;;;;;;4988804;28;20481;-81
2022/03/25 09:23:34;;;;;;;14.33;7.57;;;24.70;44.60;;;;;;4977135;28;20449;-82
2022/03/25 09:26:01;;;;;;;13.37;6.20;;;24.70;44.70;;;;;;4976255;28;20456;-81
2022/03/25 09:28:28;;;;;;;20.23;7.43;;;24.80;44.80;;;;;;4976726;28;20484;-80
2022/03/25 09:30:56;;;;;;;15.63;6.40;;;24.80;44.80;;;;;;4975915;28;20445;-82
2022/03/25 09:33:23;;;;;;;17.30;6.70;;;24.80;44.80;;;;;;4976281;28;20481;-80
2022/03/25 09:35:50;;;;;;;15.97;6.43;;;24.80;44.80;;;;;;4976726;28;20465;-81
2022/03/25 09:38:17;;;;;;;15.33;6.87;;;24.80;44.80;;;;;;4976426;28;20449;-82
2022/03/25 09:40:46;;;;;;;21.33;6.63;;;24.90;45.00;;;;;;4976664;28;20489;-81
2022/03/25 09:43:13;;;;;;;12.70;6.57;;;24.90;45.00;;;;;;4977372;28;20441;-81
2022/03/25 09:45:40;;;;;;;18.10;6.60;;;25.00;45.00;;;;;;4976724;28;20925;-81
2022/03/25 09:48:08;;;;;;;20.30;7.50;;;25.00;45.10;;;;;;4977178;28;20448;-81
2022/03/25 09:50:38;;;;;;;22.30;7.33;;;25.00;45.10;;;;;;4977577;28;20521;-81
2022/03/25 09:53:06;;;;;;;13.43;6.57;;;25.00;45.10;;;;;;4977507;28;20477;-83
2022/03/25 09:55:34;;;;;;;17.17;6.80;;;25.00;45.10;;;;;;4977139;28;20445;-82
2022/03/25 09:58:01;;;;;;;12.30;6.00;;;25.10;45.20;;;;;;4977105;28;20450;-81
2022/03/25 10:00:28;;;;;;;22.63;7.67;;;25.10;45.20;;;;;;4976362;28;20847;-82
2022/03/25 10:02:55;;;;;;;16.30;6.37;;;25.20;45.20;;;;;;4977588;28;20457;-82
2022/03/25 10:05:23;;;;;;;17.47;6.47;;;25.20;45.20;;;;;;4976989;28;21036;-82
2022/03/25 10:07:51;;;;;;;14.10;6.03;;;25.20;45.20;;;;;;4976883;28;20844;-81
2022/03/25 10:10:21;;;;;;;15.70;5.70;;;25.30;45.20;;;;;;4976864;28;20540;-81
2022/03/25 10:12:50;;;;;;;11.20;6.03;;;25.30;45.30;;;;;;4977326;28;20936;-81
2022/03/25 10:15:19;;;;;;;16.03;5.37;;;25.30;45.30;;;;;;4975952;28;20445;-82
2022/03/25 10:17:54;;;;;;;14.67;6.17;;;25.30;45.30;;;;;;4976058;28;20456;-82
2022/03/25 10:20:25;;;;;;;12.57;6.27;;;25.40;45.40;;;;;;4976363;28;20537;-80
2022/03/25 10:23:04;;;;;;;8.33;5.60;;;25.40;45.40;;;;;;4975953;28;20803;-81
2022/03/25 10:25:36;;;;;;;13.17;7.20;;;25.40;45.10;;;;;;4975869;28;20434;-81
2022/03/25 10:28:04;;;;;;;8.20;7.13;;;25.40;44.90;;;;;;4975446;28;20449;-83
2022/03/25 10:30:37;;;;;;;9.43;7.60;;;25.40;44.80;;;;;;4975752;28;20449;-81
2022/03/25 10:33:09;;;;;;;10.00;8.43;;;25.40;44.60;;;;;;4975171;28;20456;-89
2022/03/25 10:35:53;;;;;;;12.87;8.77;;;25.30;44.40;;;;;;4975442;28;20473;-89
2022/03/25 10:38:21;;;;;;;8.97;7.53;;;25.30;44.40;;;;;;4976215;28;20429;-89
2022/03/25 10:40:53;;;;;;;20.23;8.37;;;25.20;44.40;;;;;;4975462;28;20481;-85
2022/03/25 10:43:20;;;;;;;11.03;6.97;;;25.30;44.60;;;;;;4974167;28;20830;-82
2022/03/25 10:45:48;;;;;;;10.83;7.43;;;25.20;45.10;;;;;;4975944;28;20441;-85
2022/03/25 10:48:19;;;;;;;13.50;7.93;;;25.20;45.10;;;;;;4975129;28;20944;-88
2022/03/25 10:51:03;;;;;;;12.87;7.53;;;25.20;45.20;;;;;;4975381;28;20444;-88
2022/03/25 10:53:31;;;;;;;12.13;7.50;;;25.10;45.20;;;;;;4975325;28;20489;-84
2022/03/25 10:55:59;;;;;;;10.73;7.40;;;25.10;45.20;;;;;;4975280;28;20473;-88
2022/03/25 10:58:26;;;;;;;12.20;8.07;;;25.00;45.20;;;;;;4975380;28;20441;-83
2022/03/25 11:00:53;;;;;;;15.23;8.17;;;25.00;45.30;;;;;;4975174;28;20493;-84
2022/03/25 11:03:20;;;;;;;13.87;7.90;;;25.00;45.30;;;;;;4975010;28;20441;-89
2022/03/25 11:05:47;;;;;;;14.67;7.30;;;25.00;45.10;;;;;;4975205;28;20445;-87
2022/03/25 11:08:15;;;;;;;11.33;7.20;;;25.00;44.80;;;;;;4975532;28;20448;-88
2022/03/25 11:10:43;;;;;;;8.23;6.93;;;25.00;44.70;;;;;;4975131;28;20453;-87
2022/03/25 11:13:09;;;;;;;7.20;5.77;;;25.00;44.80;;;;;;4975159;28;20445;-86
2022/03/25 11:15:37;;;;;;;8.33;7.00;;;25.00;44.80;;;;;;4975187;28;20442;-84
2022/03/25 11:18:04;;;;;;;13.33;7.77;;;25.00;44.80;;;;;;4975096;28;20438;-90
2022/03/25 11:20:31;;;;;;;17.83;16.00;;;25.00;44.90;;;;;;4974931;28;20452;-83
2022/03/25 11:23:05;;;;;;;19.30;15.13;;;25.00;44.10;;;;;;4975375;28;20445;-82
2022/03/25 11:25:38;;;;;;;14.33;12.33;;;25.10;43.80;;;;;;4975487;28;20445;-91
2022/03/25 11:28:09;;;;;;;11.70;9.50;;;25.10;43.80;;;;;;4975524;28;20430;-83
2022/03/25 11:30:37;;;;;;;11.60;9.07;;;25.10;44.20;;;;;;4974959;28;20457;-82
2022/03/25 11:33:09;;;;;;;16.10;9.97;;;25.10;44.60;;;;;;4975638;28;20453;-84
2022/03/25 11:35:39;;;;;;;9.57;8.30;;;25.10;44.80;;;;;;4976667;28;20532;-82
2022/03/25 11:38:22;;;;;;;13.80;8.60;;;25.10;45.00;;;;;;4975711;28;20488;-87
2022/03/25 11:40:52;;;;;;;11.50;8.20;;;25.20;45.20;;;;;;4974867;28;20483;-81
2022/03/25 11:43:20;;;;;;;9.00;7.50;;;25.10;45.30;;;;;;4974712;28;20437;-81
2022/03/25 11:46:03;;;;;;;8.50;7.10;;;25.10;45.30;;;;;;4974694;28;20500;-83
2022/03/25 11:48:51;;;;;;;8.63;7.13;;;25.20;45.40;;;;;;4974784;28;20452;-82
2022/03/25 11:51:41;;;;;;;7.73;5.70;;;25.30;45.50;;;;;;4968134;28;20449;-81
2022/03/25 11:54:37;;;;;;;8.03;6.90;;;25.30;46.20;;;;;;4976814;28;20441;-81
2022/03/25 11:57:07;;;;;;;10.40;6.80;;;25.30;45.80;;;;;;4978539;28;20449;-81
2022/03/25 11:59:50;;;;;;;6.30;5.57;;;25.40;46.00;;;;;;4978306;28;20521;-82
2022/03/25 12:02:29;;;;;;;8.50;6.40;;;25.50;46.10;;;;;;4978264;28;20492;-83
2022/03/25 12:04:56;;;;;;;9.40;4.63;;;25.50;46.20;;;;;;4978446;28;20439;-85
2022/03/25 12:07:23;;;;;;;5.97;4.73;;;25.50;46.30;;;;;;4978412;28;20441;-85
2022/03/25 12:09:50;;;;;;;6.60;5.07;;;25.50;46.30;;;;;;4978085;28;20438;-82
2022/03/25 12:12:18;;;;;;;5.80;4.80;;;25.50;46.30;;;;;;4978204;28;20452;-82
2022/03/25 12:15:07;;;;;;;7.03;5.37;;;25.70;46.70;;;;;;4978018;28;20449;-82
2022/03/25 12:17:34;;;;;;;5.73;5.07;;;25.50;46.70;;;;;;4977737;28;20445;-82
2022/03/25 12:23:23;;;;;;;7.70;4.80;;;25.60;47.40;;;;;;4978197;28;20830;-82
2022/03/25 12:25:50;;;;;;;6.40;4.63;;;25.50;48.20;;;;;;4977768;28;20475;-80
2022/03/25 12:28:25;;;;;;;6.57;5.83;;;25.50;48.50;;;;;;4977594;28;20448;-80
2022/03/25 12:30:54;;;;;;;12.27;5.70;;;25.50;47.80;;;;;;4978021;28;20452;-80
2022/03/25 12:33:21;;;;;;;5.97;5.40;;;25.50;47.50;;;;;;4978280;28;20496;-79
2022/03/25 12:35:49;;;;;;;6.03;5.43;;;25.50;47.50;;;;;;4977326;28;20441;-79
2022/03/25 12:38:22;;;;;;;6.17;5.53;;;25.50;47.40;;;;;;4978187;28;20449;-91
2022/03/25 12:40:50;;;;;;;7.07;5.03;;;25.50;47.40;;;;;;4977581;28;20429;-80
2022/03/25 12:43:17;;;;;;;6.60;5.20;;;25.40;47.10;;;;;;4977455;28;20456;-79
2022/03/25 12:45:48;;;;;;;6.90;6.17;;;25.40;47.40;;;;;;4977196;28;20448;-80
2022/03/25 12:48:17;;;;;;;5.93;5.43;;;25.40;47.30;;;;;;4977624;28;20445;-80
2022/03/25 12:50:44;;;;;;;6.80;5.27;;;25.40;47.40;;;;;;4977126;28;20453;-78
2022/03/25 12:53:11;;;;;;;7.40;5.87;;;25.40;47.40;;;;;;4977270;28;20458;-79
2022/03/25 12:55:39;;;;;;;7.97;5.73;;;25.40;47.40;;;;;;4977454;28;20848;-87
2022/03/25 12:58:09;;;;;;;7.83;6.37;;;25.30;47.20;;;;;;4976936;28;20449;-78
2022/03/25 13:00:38;;;;;;;5.83;5.40;;;25.30;47.20;;;;;;4977223;28;20441;-78
2022/03/25 13:03:07;;;;;;;8.40;5.90;;;25.40;47.20;;;;;;4977366;28;20485;-79
2022/03/25 13:05:35;;;;;;;6.27;5.77;;;25.30;47.20;;;;;;4976135;28;20449;-79